Aérodrome :
LOGIN :

S'inscrire | Disclaimer

   EN    FR    IT 

 










Légende :    VFR   VFR Marginal   IFR   IFR Intensif   IFR Très Intensif
Visi : 
Plafond : 
>= 8 km
>= 3000ft
5 à 8 km
1000 à 3000 ft
1500m à 5 km
500 à 1000 ft
800 à 1500m
200 à 500 ft
< 800m
< 200 ft
Symboles :   Orages  Brouillard  Fortes neiges  Fortes précipitations  Vent > 20 kt
SIGMETs :   Divers  Orages  Givrage  Turbulence  Onde Orograph.  Cendres Volcan.






- Altitude de l'aérodrome : 20 ft
- Code IATA : LSI


EGPB - Sumburgh

DERNIER METAR :
  • 130650Z 18008KT 9999 BKN002 OVC045 12/12 Q1013 NOSIG

METARs EXPIRÉS :
  • 130620Z 20009KT 9999 -DZ BKN002 OVC030 12/11 Q1014 TEMPO 3000 RADZ
  • 130550Z 18008KT 3500 -DZ BR BKN002 OVC011 12/11 Q1014
  • 130450Z AUTO 17006KT 2900 DZ BKN005/// BKN024/// OVC033/// 12/11 Q1014
  • 130420Z AUTO 17007KT 9999 OVC039/// 12/11 Q1014

TAF TAF EGPB
Valide du 13 à 03h jusqu'au 13 à 12h UTC


130155Z 1303/1312 17012KT 9999 FEW020 SCT030
BECMG 1303/1306 23008KT BKN012
TEMPO 1303/1309 6000 -DZ
PROB30
TEMPO 1304/1309 2000 DZ BR BKN004
BECMG 1308/1311 FEW012
PROB30
TEMPO 1311/1312 5000 -DZ BKN012



MET'MAP, la Météo Aéronautique d'un coup d'oeil ! - Copyright ORBIFLY Décembre 2007 - Disclaimer

ORBIFLY MET'MAP TEAM :

Programmation & Développement : Alexandra Zaïnal
Sur une idée originale de : Baudouin d'Aumeries
Assistance à la programmation : Marc-Olivier Méhu
Soutien technique & logistique : Manuel Goepfert

Contact : metmap@orbifly.com




SOURCES & CREDITS :

   NOAA